createdAt,value
2018-11-06T00:02:14.438Z,8.80
2018-11-06T00:04:47.826Z,8.80
2018-11-06T00:07:15.407Z,8.80
2018-11-06T00:09:43.130Z,8.70
2018-11-06T00:12:10.624Z,8.80
2018-11-06T00:14:38.232Z,8.70
2018-11-06T00:17:05.818Z,8.70
2018-11-06T00:19:33.311Z,8.80
2018-11-06T00:22:00.842Z,8.70
2018-11-06T00:24:28.343Z,8.70
2018-11-06T00:26:56.715Z,8.80
2018-11-06T00:29:24.278Z,8.70
2018-11-06T00:31:51.772Z,8.90
2018-11-06T00:34:19.414Z,8.80
2018-11-06T00:36:46.871Z,8.80
2018-11-06T00:39:14.315Z,8.80
2018-11-06T00:41:41.967Z,8.90
2018-11-06T00:44:09.572Z,8.90
2018-11-06T00:46:37.082Z,8.80
2018-11-06T00:49:04.722Z,8.80
2018-11-06T00:51:32.273Z,8.80
2018-11-06T00:53:59.849Z,8.80
2018-11-06T00:56:27.412Z,8.70
2018-11-06T00:58:54.967Z,8.60
2018-11-06T01:01:22.594Z,8.70
2018-11-06T01:03:55.792Z,8.60
2018-11-06T01:06:23.485Z,8.60
2018-11-06T01:08:51.053Z,8.50
2018-11-06T01:11:19.659Z,8.50
2018-11-06T01:13:47.319Z,8.50
2018-11-06T01:16:14.842Z,8.60
2018-11-06T01:18:42.446Z,8.60
2018-11-06T01:21:10.564Z,8.60
2018-11-06T01:23:38.141Z,8.70
2018-11-06T01:28:39.050Z,8.60
2018-11-06T01:31:06.650Z,8.60
2018-11-06T01:33:34.188Z,8.60
2018-11-06T01:36:01.828Z,8.60
2018-11-06T01:38:29.368Z,8.60
2018-11-06T01:40:56.966Z,8.60
2018-11-06T01:43:24.502Z,8.60
2018-11-06T01:45:52.025Z,8.50
2018-11-06T01:48:19.565Z,8.50
2018-11-06T01:50:47.198Z,8.50
2018-11-06T01:53:14.840Z,8.40
2018-11-06T01:55:42.433Z,8.50
2018-11-06T01:58:10.049Z,8.40
2018-11-06T02:00:37.578Z,8.40
2018-11-06T02:03:05.227Z,8.30
2018-11-06T02:05:32.748Z,8.40
2018-11-06T02:08:00.422Z,8.40
2018-11-06T02:10:27.993Z,8.40
2018-11-06T02:12:55.626Z,8.40
2018-11-06T02:15:23.228Z,8.30
2018-11-06T02:17:50.860Z,8.30
2018-11-06T02:20:18.406Z,8.40
2018-11-06T02:22:46.373Z,8.40
2018-11-06T02:25:14.215Z,8.40
2018-11-06T02:27:41.816Z,8.40
2018-11-06T02:30:11.401Z,8.40
2018-11-06T02:32:39.280Z,8.40
2018-11-06T02:35:07.078Z,8.50
2018-11-06T02:37:34.652Z,8.50
2018-11-06T02:40:02.204Z,8.40
2018-11-06T02:42:29.810Z,8.40
2018-11-06T02:44:57.401Z,8.40
2018-11-06T02:47:24.945Z,8.40
2018-11-06T02:49:52.444Z,8.40
2018-11-06T02:52:20.081Z,8.40
2018-11-06T02:54:47.676Z,8.40
2018-11-06T02:57:15.165Z,8.50
2018-11-06T02:59:42.761Z,8.40
2018-11-06T03:02:10.292Z,8.30
2018-11-06T03:04:37.914Z,8.30
2018-11-06T03:07:05.550Z,8.30
2018-11-06T03:09:33.131Z,8.30
2018-11-06T03:12:00.691Z,8.40
2018-11-06T03:14:28.243Z,8.40
2018-11-06T03:16:55.821Z,8.40
2018-11-06T03:19:23.254Z,8.40
2018-11-06T03:21:50.778Z,8.30
2018-11-06T03:24:18.440Z,8.30
2018-11-06T03:26:46.018Z,8.20
2018-11-06T03:29:13.619Z,8.30
2018-11-06T03:31:41.253Z,8.20
2018-11-06T03:34:08.763Z,8.30
2018-11-06T03:36:36.399Z,8.20
2018-11-06T03:39:06.176Z,8.20
2018-11-06T03:41:33.735Z,8.20
2018-11-06T03:44:01.342Z,8.10
2018-11-06T03:46:28.834Z,8.20
2018-11-06T03:48:56.349Z,8.20
2018-11-06T03:51:23.874Z,8.20
2018-11-06T03:53:51.456Z,8.20
2018-11-06T03:56:18.996Z,8.10
2018-11-06T03:58:46.519Z,8.00
2018-11-06T04:01:14.035Z,8.00
2018-11-06T04:03:41.931Z,7.90
2018-11-06T04:06:09.460Z,7.80
2018-11-06T04:08:37.044Z,7.80
2018-11-06T04:11:04.569Z,7.80
2018-11-06T04:13:32.088Z,7.70
2018-11-06T04:15:59.860Z,7.70
2018-11-06T04:18:27.401Z,7.70
2018-11-06T04:20:54.948Z,7.70
2018-11-06T04:23:22.514Z,7.70
2018-11-06T04:25:50.105Z,7.70
2018-11-06T04:28:17.697Z,7.60
2018-11-06T04:30:45.246Z,7.60
2018-11-06T04:33:12.868Z,7.70
2018-11-06T04:35:40.482Z,7.80
2018-11-06T04:38:08.052Z,7.90
2018-11-06T04:40:35.602Z,7.80
2018-11-06T04:43:03.231Z,7.80
2018-11-06T04:45:30.727Z,7.80
2018-11-06T04:47:58.280Z,7.80
2018-11-06T04:50:25.886Z,7.90
2018-11-06T04:52:53.444Z,7.90
2018-11-06T04:55:21.044Z,7.90
2018-11-06T04:57:48.549Z,7.90
2018-11-06T05:00:16.029Z,7.90
2018-11-06T05:02:43.903Z,7.90
2018-11-06T05:05:12.034Z,7.90
2018-11-06T05:07:39.885Z,8.00
2018-11-06T05:10:09.548Z,8.00
2018-11-06T05:12:37.082Z,8.00
2018-11-06T05:15:05.432Z,7.90
2018-11-06T05:17:32.901Z,8.00
2018-11-06T05:20:00.457Z,7.90
2018-11-06T05:22:28.050Z,7.90
2018-11-06T05:24:55.593Z,7.80
2018-11-06T05:27:23.068Z,7.90
2018-11-06T05:29:50.624Z,8.00
2018-11-06T05:32:18.190Z,7.90
2018-11-06T05:34:45.685Z,7.90
2018-11-06T05:37:13.145Z,8.00
2018-11-06T05:39:52.096Z,8.00
2018-11-06T05:42:19.615Z,7.90
2018-11-06T05:44:47.406Z,7.90
2018-11-06T05:47:14.995Z,8.00
2018-11-06T05:49:42.567Z,7.90
2018-11-06T05:52:10.079Z,8.00
2018-11-06T05:54:37.571Z,7.90
2018-11-06T05:57:05.235Z,8.00
2018-11-06T05:59:32.764Z,7.90
2018-11-06T06:02:00.449Z,7.90
2018-11-06T06:04:28.064Z,7.90
2018-11-06T06:06:55.589Z,7.90
2018-11-06T06:09:23.290Z,7.90
2018-11-06T06:11:51.648Z,7.90
2018-11-06T06:14:19.199Z,7.80
2018-11-06T06:16:46.792Z,7.90
2018-11-06T06:19:14.320Z,7.90
2018-11-06T06:21:41.883Z,7.90
2018-11-06T06:24:09.345Z,8.00
2018-11-06T06:26:36.913Z,8.00
2018-11-06T06:29:04.893Z,8.00
2018-11-06T06:31:32.370Z,8.00
2018-11-06T06:34:00.001Z,7.90
2018-11-06T06:36:27.536Z,7.90
2018-11-06T06:38:55.161Z,7.90
2018-11-06T06:41:22.769Z,8.00
2018-11-06T06:43:50.390Z,8.00
2018-11-06T06:46:17.920Z,8.00
2018-11-06T06:48:45.471Z,7.90
2018-11-06T06:51:13.016Z,7.90
2018-11-06T06:53:40.632Z,8.00
2018-11-06T06:56:08.201Z,7.90
2018-11-06T06:58:35.795Z,8.00
2018-11-06T07:01:03.439Z,8.00
2018-11-06T07:03:30.923Z,8.10
2018-11-06T07:05:58.444Z,8.00
2018-11-06T07:08:26.058Z,8.00
2018-11-06T07:10:53.630Z,8.00
2018-11-06T07:13:21.244Z,7.90
2018-11-06T07:15:48.731Z,7.90
2018-11-06T07:18:16.212Z,7.90
2018-11-06T07:20:43.679Z,7.90
2018-11-06T07:23:11.248Z,7.90
2018-11-06T07:25:38.824Z,7.90
2018-11-06T07:28:07.038Z,7.90
2018-11-06T07:30:34.576Z,7.90
2018-11-06T07:33:02.161Z,7.90
2018-11-06T07:35:29.839Z,8.00
2018-11-06T07:37:57.279Z,7.90
2018-11-06T07:40:24.871Z,7.90
2018-11-06T07:42:52.422Z,7.90
2018-11-06T07:45:21.062Z,7.90
2018-11-06T07:47:48.611Z,7.90
2018-11-06T07:50:16.192Z,7.90
2018-11-06T07:52:44.041Z,7.80
2018-11-06T07:55:12.811Z,7.80
2018-11-06T07:57:40.365Z,7.90
2018-11-06T08:00:09.957Z,7.90
2018-11-06T08:02:37.549Z,7.90
2018-11-06T08:05:05.292Z,7.90
2018-11-06T08:07:32.969Z,7.80
2018-11-06T08:10:00.533Z,7.90
2018-11-06T08:12:28.067Z,7.80
2018-11-06T08:14:55.613Z,7.80
2018-11-06T08:17:23.085Z,7.80
2018-11-06T08:19:50.676Z,7.80
2018-11-06T08:22:18.207Z,7.90
2018-11-06T08:24:45.807Z,7.80
2018-11-06T08:27:13.471Z,7.80
2018-11-06T08:29:41.020Z,7.80
2018-11-06T08:32:08.876Z,7.80
2018-11-06T08:34:36.115Z,7.70
2018-11-06T08:37:03.798Z,7.80
2018-11-06T08:39:31.318Z,7.80
2018-11-06T08:41:58.930Z,7.80
2018-11-06T08:44:26.438Z,7.80
2018-11-06T08:46:54.004Z,7.80
2018-11-06T08:49:21.616Z,7.80
2018-11-06T08:51:49.157Z,7.90
2018-11-06T08:54:16.682Z,7.90
2018-11-06T08:56:44.261Z,7.90
2018-11-06T08:59:11.845Z,7.80
2018-11-06T09:01:39.452Z,7.90
2018-11-06T09:04:06.962Z,7.90
2018-11-06T09:06:34.605Z,7.90
2018-11-06T09:09:02.521Z,7.80
2018-11-06T09:11:30.215Z,7.90
2018-11-06T09:13:57.796Z,7.90
2018-11-06T09:16:25.378Z,7.90
2018-11-06T09:18:52.938Z,7.90
2018-11-06T09:21:20.566Z,7.90
2018-11-06T09:23:48.117Z,7.90
2018-11-06T09:26:15.641Z,7.90
2018-11-06T09:28:43.148Z,8.00
2018-11-06T09:31:10.672Z,7.90
2018-11-06T09:33:38.293Z,7.90
2018-11-06T09:36:05.844Z,7.90
2018-11-06T09:38:33.330Z,7.90
2018-11-06T09:41:00.946Z,8.00
2018-11-06T09:43:28.463Z,7.90
2018-11-06T09:45:55.936Z,8.00
2018-11-06T09:48:23.497Z,7.90
2018-11-06T09:50:51.045Z,8.00
2018-11-06T09:53:18.602Z,8.00
2018-11-06T09:55:46.069Z,8.00
2018-11-06T09:58:13.564Z,8.00
2018-11-06T10:00:41.099Z,8.00
2018-11-06T10:03:08.667Z,8.00
2018-11-06T10:05:36.178Z,8.00
2018-11-06T10:08:03.731Z,8.00
2018-11-06T10:10:31.249Z,8.00
2018-11-06T10:12:58.861Z,8.00
2018-11-06T10:15:26.446Z,8.00
2018-11-06T10:17:53.948Z,8.00
2018-11-06T10:20:21.439Z,8.00
2018-11-06T10:22:49.146Z,8.00
2018-11-06T10:25:16.690Z,8.00
2018-11-06T10:27:44.288Z,8.00
2018-11-06T10:30:14.701Z,8.00
2018-11-06T10:32:42.504Z,7.90
2018-11-06T10:35:10.463Z,8.00
2018-11-06T10:37:38.281Z,7.90
2018-11-06T10:40:09.501Z,7.90
2018-11-06T10:42:37.049Z,7.90
2018-11-06T10:45:05.273Z,8.00
2018-11-06T10:47:32.831Z,8.00
2018-11-06T10:50:00.515Z,7.90
2018-11-06T10:52:27.989Z,7.90
2018-11-06T10:54:55.628Z,8.00
2018-11-06T10:57:23.127Z,8.00
2018-11-06T10:59:50.677Z,8.00
2018-11-06T11:02:25.634Z,8.00
2018-11-06T11:04:53.177Z,8.00
2018-11-06T11:07:20.741Z,8.00
2018-11-06T11:09:48.296Z,8.00
2018-11-06T11:12:15.841Z,8.00
2018-11-06T11:14:43.405Z,8.10
2018-11-06T11:17:10.993Z,8.10
2018-11-06T11:19:38.541Z,8.10
2018-11-06T11:22:06.090Z,8.10
2018-11-06T11:24:33.602Z,8.10
2018-11-06T11:27:01.169Z,8.10
2018-11-06T11:29:28.736Z,8.10
2018-11-06T11:31:56.302Z,8.10
2018-11-06T11:34:23.880Z,8.10
2018-11-06T11:36:51.507Z,8.20
2018-11-06T11:39:19.083Z,8.20
2018-11-06T11:41:46.579Z,8.20
2018-11-06T11:44:14.174Z,8.10
2018-11-06T11:46:41.693Z,8.20
2018-11-06T11:49:09.219Z,8.20
2018-11-06T11:51:36.784Z,8.20
2018-11-06T11:54:04.538Z,8.20
2018-11-06T11:56:32.072Z,8.20
2018-11-06T11:58:59.599Z,8.20
2018-11-06T12:01:27.148Z,8.20
2018-11-06T12:03:54.708Z,8.20
2018-11-06T12:06:22.321Z,8.30
2018-11-06T12:08:50.394Z,8.20
2018-11-06T12:11:17.978Z,8.20
2018-11-06T12:13:45.621Z,8.20
2018-11-06T12:16:13.214Z,8.20
2018-11-06T12:18:40.749Z,8.20
2018-11-06T12:21:08.314Z,8.20
2018-11-06T12:23:36.605Z,8.20
2018-11-06T12:26:04.586Z,8.20
2018-11-06T12:28:32.095Z,8.20
2018-11-06T12:30:59.635Z,8.20
2018-11-06T12:33:27.184Z,8.20
2018-11-06T12:35:54.785Z,8.20
2018-11-06T12:38:22.527Z,8.20
2018-11-06T12:40:50.206Z,8.20
2018-11-06T12:43:17.886Z,8.30
2018-11-06T12:45:45.523Z,8.20
2018-11-06T12:48:13.286Z,8.30
2018-11-06T12:50:40.919Z,8.30
2018-11-06T12:53:08.597Z,8.30
2018-11-06T12:55:36.840Z,8.30
2018-11-06T12:58:04.688Z,8.30
2018-11-06T13:00:32.323Z,8.30
2018-11-06T13:02:59.953Z,8.30
2018-11-06T13:05:27.584Z,8.30
2018-11-06T13:07:55.278Z,8.40
2018-11-06T13:10:22.859Z,8.30
2018-11-06T13:12:50.422Z,8.30
2018-11-06T13:15:18.495Z,8.30
2018-11-06T13:17:45.630Z,8.30
2018-11-06T13:20:14.304Z,8.30
2018-11-06T13:22:42.611Z,8.40
2018-11-06T13:25:10.190Z,8.40
2018-11-06T13:27:38.649Z,8.40
2018-11-06T13:30:08.560Z,8.40
2018-11-06T13:32:36.705Z,8.40
2018-11-06T13:35:05.057Z,8.40
2018-11-06T13:37:32.566Z,8.40
2018-11-06T13:40:00.145Z,8.40
2018-11-06T13:42:27.821Z,8.40
2018-11-06T13:44:55.602Z,8.40
2018-11-06T13:47:22.790Z,8.30
2018-11-06T13:49:50.292Z,8.30
2018-11-06T13:52:17.983Z,8.30
2018-11-06T13:54:45.519Z,8.30
2018-11-06T13:57:13.064Z,8.30
2018-11-06T13:59:40.661Z,8.30
2018-11-06T14:02:08.196Z,8.30
2018-11-06T14:04:35.767Z,8.30
2018-11-06T14:07:04.008Z,8.30
2018-11-06T14:09:31.753Z,8.20
2018-11-06T14:11:59.250Z,8.20
2018-11-06T14:14:26.873Z,8.20
2018-11-06T14:16:54.428Z,8.20
2018-11-06T14:19:21.963Z,8.20
2018-11-06T14:21:49.549Z,8.20
2018-11-06T14:24:17.127Z,8.20
2018-11-06T14:26:44.590Z,8.20
2018-11-06T14:29:12.194Z,8.20
2018-11-06T14:31:39.827Z,8.10
2018-11-06T14:34:07.398Z,8.10
2018-11-06T14:36:35.037Z,8.10
2018-11-06T14:39:02.784Z,8.10
2018-11-06T14:41:30.448Z,8.10
2018-11-06T14:43:57.996Z,8.10
2018-11-06T14:46:25.712Z,8.10
2018-11-06T14:48:53.433Z,8.10
2018-11-06T14:51:20.967Z,8.10
2018-11-06T14:53:48.514Z,8.10
2018-11-06T14:56:16.104Z,8.10
2018-11-06T14:58:43.733Z,8.20
2018-11-06T15:01:11.497Z,8.20
2018-11-06T15:03:39.032Z,8.20
2018-11-06T15:06:06.637Z,8.20
2018-11-06T15:08:34.211Z,8.30
2018-11-06T15:11:01.851Z,8.30
2018-11-06T15:13:29.468Z,8.30
2018-11-06T15:15:57.080Z,8.30
2018-11-06T15:18:24.855Z,8.30
2018-11-06T15:20:52.545Z,8.30
2018-11-06T15:23:20.033Z,8.30
2018-11-06T15:25:47.564Z,8.30
2018-11-06T15:28:15.137Z,8.30
2018-11-06T15:30:42.770Z,8.30
2018-11-06T15:33:10.344Z,8.40
2018-11-06T15:35:37.891Z,8.30
2018-11-06T15:38:05.455Z,8.40
2018-11-06T15:40:33.007Z,8.40
2018-11-06T15:43:00.591Z,8.40
2018-11-06T15:45:28.142Z,8.40
2018-11-06T15:47:55.685Z,8.40
2018-11-06T15:50:23.186Z,8.50
2018-11-06T15:52:51.304Z,8.50
2018-11-06T15:55:18.940Z,8.50
2018-11-06T15:57:46.553Z,8.50
2018-11-06T16:00:20.112Z,8.50
2018-11-06T16:02:48.674Z,8.50
2018-11-06T16:05:16.296Z,8.50
2018-11-06T16:07:44.035Z,8.50
2018-11-06T16:10:15.518Z,8.60
2018-11-06T16:12:44.042Z,8.60
2018-11-06T16:15:11.695Z,8.60
2018-11-06T16:17:39.393Z,8.60
2018-11-06T16:20:08.997Z,8.60
2018-11-06T16:22:36.572Z,8.50
2018-11-06T16:25:05.665Z,8.50
2018-11-06T16:27:33.268Z,8.50
2018-11-06T16:30:00.765Z,8.60
2018-11-06T16:32:28.435Z,8.50
2018-11-06T16:34:56.080Z,8.50
2018-11-06T16:37:23.779Z,8.50
2018-11-06T16:39:51.399Z,8.50
2018-11-06T16:42:18.951Z,8.40
2018-11-06T16:44:46.484Z,8.50
2018-11-06T16:47:14.069Z,8.50
2018-11-06T16:49:41.634Z,8.50
2018-11-06T16:52:09.145Z,8.50
2018-11-06T16:54:36.739Z,8.60
2018-11-06T16:57:04.606Z,8.60
2018-11-06T16:59:32.220Z,8.50
2018-11-06T17:01:59.852Z,8.40
2018-11-06T17:04:27.542Z,8.50
2018-11-06T17:06:55.226Z,8.40
2018-11-06T17:09:22.804Z,8.50
2018-11-06T17:11:50.423Z,8.40
2018-11-06T17:14:17.999Z,8.40
2018-11-06T17:16:45.696Z,8.40
2018-11-06T17:19:13.284Z,8.40
2018-11-06T17:21:40.964Z,8.40
2018-11-06T17:24:08.644Z,8.30
2018-11-06T17:26:36.223Z,8.40
2018-11-06T17:29:04.216Z,8.40
2018-11-06T17:31:32.225Z,8.40
2018-11-06T17:33:59.797Z,8.40
2018-11-06T17:36:27.449Z,8.40
2018-11-06T17:38:54.992Z,8.40
2018-11-06T17:41:22.562Z,8.40
2018-11-06T17:43:51.269Z,8.40
2018-11-06T17:46:18.865Z,8.40
2018-11-06T17:48:46.501Z,8.40
2018-11-06T17:51:14.108Z,8.30
2018-11-06T17:53:41.673Z,8.30
2018-11-06T17:56:09.175Z,8.40
2018-11-06T17:58:36.833Z,8.40
2018-11-06T18:01:04.742Z,8.40
2018-11-06T18:03:32.322Z,8.40
2018-11-06T18:06:00.009Z,8.30
2018-11-06T18:08:27.605Z,8.30
2018-11-06T18:10:55.132Z,8.40
2018-11-06T18:13:23.386Z,8.40
2018-11-06T18:15:50.885Z,8.40
2018-11-06T18:18:18.512Z,8.30
2018-11-06T18:20:46.823Z,8.30
2018-11-06T18:23:14.335Z,8.30
2018-11-06T18:25:42.065Z,8.20
2018-11-06T18:28:09.503Z,8.20
2018-11-06T18:30:37.090Z,8.30
2018-11-06T18:33:05.020Z,8.30
2018-11-06T18:35:32.589Z,8.20
2018-11-06T18:38:00.128Z,8.30
2018-11-06T18:40:27.729Z,8.20
2018-11-06T18:42:55.413Z,8.20
2018-11-06T18:45:23.022Z,8.20
2018-11-06T18:47:50.674Z,8.20
2018-11-06T18:50:18.892Z,8.20
2018-11-06T18:52:47.843Z,8.30
2018-11-06T18:55:15.481Z,8.30
2018-11-06T18:57:43.324Z,8.30
2018-11-06T19:00:12.811Z,8.30
2018-11-06T19:02:41.174Z,8.30
2018-11-06T19:05:08.831Z,8.40
2018-11-06T19:07:36.746Z,8.30
2018-11-06T19:10:04.976Z,8.30
2018-11-06T19:12:32.741Z,8.40
2018-11-06T19:15:00.341Z,8.40
2018-11-06T19:17:27.904Z,8.40
2018-11-06T19:19:55.431Z,8.30
2018-11-06T19:22:23.049Z,8.30
2018-11-06T19:24:50.628Z,8.40
2018-11-06T19:27:18.163Z,8.40
2018-11-06T19:29:45.671Z,8.30
2018-11-06T19:32:13.214Z,8.30
2018-11-06T19:34:40.775Z,8.40
2018-11-06T19:37:08.413Z,8.30
2018-11-06T19:39:35.952Z,8.30
2018-11-06T19:42:03.606Z,8.30
2018-11-06T19:44:31.245Z,8.30
2018-11-06T19:46:58.778Z,8.40
2018-11-06T19:49:26.359Z,8.40
2018-11-06T19:51:53.933Z,8.40
2018-11-06T19:54:21.575Z,8.50
2018-11-06T19:56:49.133Z,8.50
2018-11-06T19:59:16.774Z,8.50
2018-11-06T20:01:44.313Z,8.50
2018-11-06T20:04:11.946Z,8.50
2018-11-06T20:06:39.537Z,8.50
2018-11-06T20:09:08.509Z,8.50
2018-11-06T20:11:36.901Z,8.50
2018-11-06T20:14:04.662Z,8.50
2018-11-06T20:16:32.158Z,8.50
2018-11-06T20:18:59.723Z,8.50
2018-11-06T20:21:27.374Z,8.40
2018-11-06T20:23:54.966Z,8.40
2018-11-06T20:26:22.596Z,8.40
2018-11-06T20:28:50.154Z,8.50
2018-11-06T20:31:17.816Z,8.50
2018-11-06T20:33:45.404Z,8.50
2018-11-06T20:36:12.991Z,8.50
2018-11-06T20:38:40.564Z,8.50
2018-11-06T20:41:08.153Z,8.50
2018-11-06T20:43:35.702Z,8.50
2018-11-06T20:46:03.524Z,8.50
2018-11-06T20:48:31.019Z,8.50
2018-11-06T20:50:58.517Z,8.50
2018-11-06T20:53:26.164Z,8.50
2018-11-06T20:55:53.928Z,8.40
2018-11-06T20:58:21.697Z,8.40
2018-11-06T21:00:49.261Z,8.40
2018-11-06T21:03:17.084Z,8.50
2018-11-06T21:05:44.717Z,8.40
2018-11-06T21:08:12.357Z,8.50
2018-11-06T21:10:39.966Z,8.40
2018-11-06T21:13:07.598Z,8.40
2018-11-06T21:15:35.154Z,8.30
2018-11-06T21:18:02.889Z,8.30
2018-11-06T21:20:30.293Z,8.20
2018-11-06T21:22:57.878Z,8.30
2018-11-06T21:25:25.630Z,8.30
2018-11-06T21:27:53.150Z,8.30
2018-11-06T21:30:21.123Z,8.30
2018-11-06T21:32:49.849Z,8.40
2018-11-06T21:35:17.395Z,8.40
2018-11-06T21:37:45.053Z,8.30
2018-11-06T21:40:15.175Z,8.30
2018-11-06T21:42:44.529Z,8.30
2018-11-06T21:45:13.036Z,8.30
2018-11-06T21:47:41.383Z,8.30
2018-11-06T21:50:10.412Z,8.30
2018-11-06T21:52:37.994Z,8.30
2018-11-06T21:55:06.656Z,8.40
2018-11-06T21:57:34.340Z,8.30
2018-11-06T22:00:02.061Z,8.20
2018-11-06T22:02:29.688Z,8.20
2018-11-06T22:04:57.326Z,8.20
2018-11-06T22:07:24.879Z,8.20
2018-11-06T22:09:52.442Z,8.20
2018-11-06T22:12:20.074Z,8.20
2018-11-06T22:14:47.584Z,8.20
2018-11-06T22:17:15.229Z,8.20
2018-11-06T22:19:42.845Z,8.20
2018-11-06T22:22:10.382Z,8.20
2018-11-06T22:24:37.915Z,8.20
2018-11-06T22:27:05.580Z,8.20
2018-11-06T22:29:33.155Z,8.20
2018-11-06T22:32:00.745Z,8.10
2018-11-06T22:34:28.343Z,8.20
2018-11-06T22:36:55.886Z,8.10
2018-11-06T22:39:23.526Z,8.10
2018-11-06T22:41:51.103Z,8.10
2018-11-06T22:44:18.704Z,8.10
2018-11-06T22:46:46.308Z,8.10
2018-11-06T22:49:13.860Z,8.00
2018-11-06T22:51:41.454Z,8.00
2018-11-06T22:54:09.064Z,8.00
2018-11-06T22:56:36.652Z,8.00
2018-11-06T22:59:04.560Z,8.00
2018-11-06T23:01:32.107Z,8.00
2018-11-06T23:03:59.651Z,7.90
2018-11-06T23:06:27.221Z,8.00
2018-11-06T23:08:54.784Z,7.90
2018-11-06T23:11:22.388Z,7.90
2018-11-06T23:13:49.873Z,7.90
2018-11-06T23:16:17.412Z,7.80
2018-11-06T23:18:45.016Z,7.80
2018-11-06T23:21:12.535Z,7.80
2018-11-06T23:23:40.084Z,7.80
2018-11-06T23:26:07.623Z,7.80
2018-11-06T23:28:35.178Z,7.80
2018-11-06T23:31:02.757Z,7.90
2018-11-06T23:33:30.358Z,7.90
2018-11-06T23:35:57.968Z,7.80
2018-11-06T23:38:25.549Z,7.80
2018-11-06T23:40:53.064Z,7.80
2018-11-06T23:43:20.817Z,7.90
2018-11-06T23:45:48.449Z,7.70
2018-11-06T23:48:16.124Z,7.70
2018-11-06T23:50:43.745Z,7.70
2018-11-06T23:53:11.362Z,7.70
2018-11-06T23:55:38.958Z,7.60
2018-11-06T23:58:06.613Z,7.60
